sensor_id;sensor_type;location;lat;lon;timestamp;temperature;humidity
9760;DHT22;4919;48.792;9.202;2023-01-06T00:01:11;2.70;99.90
9760;DHT22;4919;48.792;9.202;2023-01-06T00:03:56;2.70;99.90
9760;DHT22;4919;48.792;9.202;2023-01-06T00:06:41;2.70;99.90
9760;DHT22;4919;48.792;9.202;2023-01-06T00:09:26;2.70;99.90
9760;DHT22;4919;48.792;9.202;2023-01-06T00:12:11;2.80;99.90
9760;DHT22;4919;48.792;9.202;2023-01-06T00:14:56;2.80;99.90
9760;DHT22;4919;48.792;9.202;2023-01-06T00:17:41;2.80;99.90
9760;DHT22;4919;48.792;9.202;2023-01-06T00:20:26;2.80;99.90
9760;DHT22;4919;48.792;9.202;2023-01-06T00:23:11;2.70;99.90
9760;DHT22;4919;48.792;9.202;2023-01-06T00:25:56;2.70;99.90
9760;DHT22;4919;48.792;9.202;2023-01-06T00:28:41;2.60;99.90
9760;DHT22;4919;48.792;9.202;2023-01-06T00:31:26;2.50;99.90
9760;DHT22;4919;48.792;9.202;2023-01-06T00:34:11;2.60;99.90
9760;DHT22;4919;48.792;9.202;2023-01-06T00:36:55;2.50;99.90
9760;DHT22;4919;48.792;9.202;2023-01-06T00:39:40;2.50;99.90
9760;DHT22;4919;48.792;9.202;2023-01-06T00:42:25;2.40;99.90
9760;DHT22;4919;48.792;9.202;2023-01-06T00:45:10;2.40;99.90
9760;DHT22;4919;48.792;9.202;2023-01-06T00:47:55;2.40;99.90
9760;DHT22;4919;48.792;9.202;2023-01-06T00:50:39;2.40;99.90
9760;DHT22;4919;48.792;9.202;2023-01-06T00:53:24;2.40;99.90
9760;DHT22;4919;48.792;9.202;2023-01-06T00:56:09;2.40;99.90
9760;DHT22;4919;48.792;9.202;2023-01-06T00:58:54;2.50;99.90
9760;DHT22;4919;48.792;9.202;2023-01-06T01:01:39;2.60;99.90
9760;DHT22;4919;48.792;9.202;2023-01-06T01:04:25;2.70;99.90
9760;DHT22;4919;48.792;9.202;2023-01-06T01:07:10;2.80;99.90
9760;DHT22;4919;48.792;9.202;2023-01-06T01:09:54;2.90;99.90
9760;DHT22;4919;48.792;9.202;2023-01-06T01:12:39;3.00;99.90
9760;DHT22;4919;48.792;9.202;2023-01-06T01:15:24;3.00;99.90
9760;DHT22;4919;48.792;9.202;2023-01-06T01:18:09;3.10;99.90
9760;DHT22;4919;48.792;9.202;2023-01-06T01:20:54;3.10;99.90
9760;DHT22;4919;48.792;9.202;2023-01-06T01:23:38;3.20;99.90
9760;DHT22;4919;48.792;9.202;2023-01-06T01:26:23;3.20;99.90
9760;DHT22;4919;48.792;9.202;2023-01-06T01:29:13;3.20;99.90
9760;DHT22;4919;48.792;9.202;2023-01-06T01:31:58;3.30;99.90
9760;DHT22;4919;48.792;9.202;2023-01-06T01:34:43;3.40;99.90
9760;DHT22;4919;48.792;9.202;2023-01-06T01:37:28;3.50;99.90
9760;DHT22;4919;48.792;9.202;2023-01-06T01:40:13;3.50;99.90
9760;DHT22;4919;48.792;9.202;2023-01-06T01:42:58;3.50;99.90
9760;DHT22;4919;48.792;9.202;2023-01-06T01:45:47;3.50;99.90
9760;DHT22;4919;48.792;9.202;2023-01-06T01:48:34;3.60;99.90
9760;DHT22;4919;48.792;9.202;2023-01-06T01:51:23;3.60;99.90
9760;DHT22;4919;48.792;9.202;2023-01-06T01:54:13;3.70;99.90
9760;DHT22;4919;48.792;9.202;2023-01-06T01:57:03;3.70;99.90
9760;DHT22;4919;48.792;9.202;2023-01-06T01:59:49;3.70;99.90
9760;DHT22;4919;48.792;9.202;2023-01-06T02:02:35;3.80;99.90
9760;DHT22;4919;48.792;9.202;2023-01-06T02:05:22;3.80;99.90
9760;DHT22;4919;48.792;9.202;2023-01-06T02:08:44;3.80;99.90
9760;DHT22;4919;48.792;9.202;2023-01-06T02:11:32;3.80;99.90
9760;DHT22;4919;48.792;9.202;2023-01-06T02:14:20;3.90;99.90
9760;DHT22;4919;48.792;9.202;2023-01-06T02:17:46;3.90;99.90
9760;DHT22;4919;48.792;9.202;2023-01-06T02:23:58;3.90;99.90
9760;DHT22;4919;48.792;9.202;2023-01-06T02:27:07;3.90;99.90
9760;DHT22;4919;48.792;9.202;2023-01-06T02:35:59;3.90;99.90
9760;DHT22;4919;48.792;9.202;2023-01-06T02:38:56;3.90;99.90
9760;DHT22;4919;48.792;9.202;2023-01-06T02:41:52;4.00;99.90
9760;DHT22;4919;48.792;9.202;2023-01-06T02:44:58;3.90;99.90
9760;DHT22;4919;48.792;9.202;2023-01-06T02:50:41;3.90;99.90
9760;DHT22;4919;48.792;9.202;2023-01-06T03:02:59;3.90;99.90
9760;DHT22;4919;48.792;9.202;2023-01-06T03:05:48;4.00;99.90
9760;DHT22;4919;48.792;9.202;2023-01-06T03:08:35;4.00;99.90
9760;DHT22;4919;48.792;9.202;2023-01-06T03:11:20;4.00;99.90
9760;DHT22;4919;48.792;9.202;2023-01-06T03:14:22;4.00;99.90
9760;DHT22;4919;48.792;9.202;2023-01-06T03:17:09;4.00;99.90
9760;DHT22;4919;48.792;9.202;2023-01-06T03:19:54;4.10;99.90
9760;DHT22;4919;48.792;9.202;2023-01-06T03:22:40;4.00;99.90
9760;DHT22;4919;48.792;9.202;2023-01-06T03:25:26;4.00;99.90
9760;DHT22;4919;48.792;9.202;2023-01-06T03:28:11;4.10;99.90
9760;DHT22;4919;48.792;9.202;2023-01-06T03:33:50;4.10;99.90
9760;DHT22;4919;48.792;9.202;2023-01-06T03:42:39;4.10;99.90
9760;DHT22;4919;48.792;9.202;2023-01-06T03:48:57;4.10;99.90
9760;DHT22;4919;48.792;9.202;2023-01-06T03:57:29;4.20;99.90
9760;DHT22;4919;48.792;9.202;2023-01-06T04:00:20;4.20;99.90
9760;DHT22;4919;48.792;9.202;2023-01-06T04:03:11;4.20;99.90
9760;DHT22;4919;48.792;9.202;2023-01-06T04:05:56;4.20;99.90
9760;DHT22;4919;48.792;9.202;2023-01-06T04:08:40;4.20;99.90
9760;DHT22;4919;48.792;9.202;2023-01-06T04:11:25;4.20;99.90
9760;DHT22;4919;48.792;9.202;2023-01-06T04:14:10;4.20;99.90
9760;DHT22;4919;48.792;9.202;2023-01-06T04:16:55;4.20;99.90
9760;DHT22;4919;48.792;9.202;2023-01-06T04:19:40;4.20;99.90
9760;DHT22;4919;48.792;9.202;2023-01-06T04:22:25;4.30;99.90
9760;DHT22;4919;48.792;9.202;2023-01-06T04:25:10;4.30;99.90
9760;DHT22;4919;48.792;9.202;2023-01-06T04:27:55;4.30;99.90
9760;DHT22;4919;48.792;9.202;2023-01-06T04:30:40;4.30;99.90
9760;DHT22;4919;48.792;9.202;2023-01-06T04:33:25;4.40;99.90
9760;DHT22;4919;48.792;9.202;2023-01-06T04:36:10;4.40;99.90
9760;DHT22;4919;48.792;9.202;2023-01-06T04:38:54;4.40;99.90
9760;DHT22;4919;48.792;9.202;2023-01-06T04:41:39;4.40;99.90
9760;DHT22;4919;48.792;9.202;2023-01-06T04:44:24;4.40;99.90
9760;DHT22;4919;48.792;9.202;2023-01-06T04:47:09;4.40;99.90
9760;DHT22;4919;48.792;9.202;2023-01-06T04:49:55;4.50;99.90
9760;DHT22;4919;48.792;9.202;2023-01-06T04:52:39;4.50;99.90
9760;DHT22;4919;48.792;9.202;2023-01-06T04:55:24;4.50;99.90
9760;DHT22;4919;48.792;9.202;2023-01-06T04:58:09;4.50;99.90
9760;DHT22;4919;48.792;9.202;2023-01-06T05:01:06;4.50;99.90
9760;DHT22;4919;48.792;9.202;2023-01-06T05:03:51;4.50;99.90
9760;DHT22;4919;48.792;9.202;2023-01-06T05:06:36;4.60;99.90
9760;DHT22;4919;48.792;9.202;2023-01-06T05:09:21;4.50;99.90
9760;DHT22;4919;48.792;9.202;2023-01-06T05:12:06;4.50;99.90
9760;DHT22;4919;48.792;9.202;2023-01-06T05:14:51;4.50;99.90
9760;DHT22;4919;48.792;9.202;2023-01-06T05:17:36;4.50;99.90
9760;DHT22;4919;48.792;9.202;2023-01-06T05:20:20;4.50;99.90
9760;DHT22;4919;48.792;9.202;2023-01-06T05:23:05;4.40;99.90
9760;DHT22;4919;48.792;9.202;2023-01-06T05:25:51;4.50;99.90
9760;DHT22;4919;48.792;9.202;2023-01-06T05:28:35;4.40;99.90
9760;DHT22;4919;48.792;9.202;2023-01-06T05:31:20;4.50;99.90
9760;DHT22;4919;48.792;9.202;2023-01-06T05:34:05;4.50;99.90
9760;DHT22;4919;48.792;9.202;2023-01-06T05:36:50;4.50;99.90
9760;DHT22;4919;48.792;9.202;2023-01-06T05:39:35;4.50;99.90
9760;DHT22;4919;48.792;9.202;2023-01-06T05:42:20;4.50;99.90
9760;DHT22;4919;48.792;9.202;2023-01-06T05:45:05;4.40;99.90
9760;DHT22;4919;48.792;9.202;2023-01-06T05:47:51;4.50;99.90
9760;DHT22;4919;48.792;9.202;2023-01-06T05:50:36;4.50;99.90
9760;DHT22;4919;48.792;9.202;2023-01-06T05:53:21;4.50;99.90
9760;DHT22;4919;48.792;9.202;2023-01-06T05:56:08;4.60;99.90
9760;DHT22;4919;48.792;9.202;2023-01-06T05:58:53;4.50;99.90
9760;DHT22;4919;48.792;9.202;2023-01-06T06:01:38;4.60;99.90
9760;DHT22;4919;48.792;9.202;2023-01-06T06:04:23;4.60;99.90
9760;DHT22;4919;48.792;9.202;2023-01-06T06:07:08;4.60;99.90
9760;DHT22;4919;48.792;9.202;2023-01-06T06:09:53;4.70;99.90
9760;DHT22;4919;48.792;9.202;2023-01-06T06:12:38;4.70;99.90
9760;DHT22;4919;48.792;9.202;2023-01-06T06:15:23;4.70;99.90
9760;DHT22;4919;48.792;9.202;2023-01-06T06:18:07;4.70;99.90
9760;DHT22;4919;48.792;9.202;2023-01-06T06:20:52;4.80;99.90
9760;DHT22;4919;48.792;9.202;2023-01-06T06:23:43;4.80;99.90
9760;DHT22;4919;48.792;9.202;2023-01-06T06:26:27;4.80;99.90
9760;DHT22;4919;48.792;9.202;2023-01-06T06:29:12;4.90;99.90
9760;DHT22;4919;48.792;9.202;2023-01-06T06:31:57;4.90;99.90
9760;DHT22;4919;48.792;9.202;2023-01-06T06:34:42;4.90;99.90
9760;DHT22;4919;48.792;9.202;2023-01-06T06:37:27;4.90;99.90
9760;DHT22;4919;48.792;9.202;2023-01-06T06:40:11;4.90;99.90
9760;DHT22;4919;48.792;9.202;2023-01-06T06:42:56;4.90;99.90
9760;DHT22;4919;48.792;9.202;2023-01-06T06:45:45;4.90;99.90
9760;DHT22;4919;48.792;9.202;2023-01-06T06:48:30;4.90;99.90
9760;DHT22;4919;48.792;9.202;2023-01-06T06:51:16;4.90;99.90
9760;DHT22;4919;48.792;9.202;2023-01-06T06:54:03;4.90;99.90
9760;DHT22;4919;48.792;9.202;2023-01-06T06:56:48;4.90;99.90
9760;DHT22;4919;48.792;9.202;2023-01-06T06:59:32;5.00;99.90
9760;DHT22;4919;48.792;9.202;2023-01-06T07:02:17;5.00;99.90
9760;DHT22;4919;48.792;9.202;2023-01-06T07:05:02;4.90;99.90
9760;DHT22;4919;48.792;9.202;2023-01-06T07:07:47;4.90;99.90
9760;DHT22;4919;48.792;9.202;2023-01-06T07:10:32;5.00;99.90
9760;DHT22;4919;48.792;9.202;2023-01-06T07:13:17;5.00;99.90
9760;DHT22;4919;48.792;9.202;2023-01-06T07:16:02;5.00;99.90
9760;DHT22;4919;48.792;9.202;2023-01-06T07:18:47;5.00;99.90
9760;DHT22;4919;48.792;9.202;2023-01-06T07:21:32;5.00;99.90
9760;DHT22;4919;48.792;9.202;2023-01-06T07:24:17;5.00;99.90
9760;DHT22;4919;48.792;9.202;2023-01-06T07:27:02;5.00;99.90
9760;DHT22;4919;48.792;9.202;2023-01-06T07:29:46;5.00;99.90
9760;DHT22;4919;48.792;9.202;2023-01-06T07:32:31;5.00;99.90
9760;DHT22;4919;48.792;9.202;2023-01-06T07:35:17;5.00;99.90
9760;DHT22;4919;48.792;9.202;2023-01-06T07:38:03;5.00;99.90
9760;DHT22;4919;48.792;9.202;2023-01-06T07:40:48;5.10;99.90
9760;DHT22;4919;48.792;9.202;2023-01-06T07:43:34;5.10;99.90
9760;DHT22;4919;48.792;9.202;2023-01-06T07:46:18;5.20;99.90
9760;DHT22;4919;48.792;9.202;2023-01-06T07:49:03;5.10;99.90
9760;DHT22;4919;48.792;9.202;2023-01-06T07:51:48;5.20;99.90
9760;DHT22;4919;48.792;9.202;2023-01-06T07:54:34;5.20;99.90
9760;DHT22;4919;48.792;9.202;2023-01-06T07:57:19;5.30;99.90
9760;DHT22;4919;48.792;9.202;2023-01-06T08:00:04;5.30;99.90
9760;DHT22;4919;48.792;9.202;2023-01-06T08:02:49;5.30;99.90
9760;DHT22;4919;48.792;9.202;2023-01-06T08:05:38;5.40;99.90
9760;DHT22;4919;48.792;9.202;2023-01-06T08:08:23;5.40;99.90
9760;DHT22;4919;48.792;9.202;2023-01-06T08:11:10;5.40;99.90
9760;DHT22;4919;48.792;9.202;2023-01-06T08:13:56;5.50;99.90
9760;DHT22;4919;48.792;9.202;2023-01-06T08:16:40;5.50;99.90
9760;DHT22;4919;48.792;9.202;2023-01-06T08:19:25;5.50;99.90
9760;DHT22;4919;48.792;9.202;2023-01-06T08:22:10;5.50;99.90
9760;DHT22;4919;48.792;9.202;2023-01-06T08:24:55;5.50;99.90
9760;DHT22;4919;48.792;9.202;2023-01-06T08:27:40;5.50;99.90
9760;DHT22;4919;48.792;9.202;2023-01-06T08:30:25;5.50;99.90
9760;DHT22;4919;48.792;9.202;2023-01-06T08:33:10;5.60;99.90
9760;DHT22;4919;48.792;9.202;2023-01-06T08:36:00;5.70;99.90
9760;DHT22;4919;48.792;9.202;2023-01-06T08:38:45;5.80;99.90
9760;DHT22;4919;48.792;9.202;2023-01-06T08:41:30;5.80;99.90
9760;DHT22;4919;48.792;9.202;2023-01-06T08:44:15;5.80;99.90
9760;DHT22;4919;48.792;9.202;2023-01-06T08:47:00;5.80;99.90
9760;DHT22;4919;48.792;9.202;2023-01-06T08:49:45;5.80;99.90
9760;DHT22;4919;48.792;9.202;2023-01-06T08:52:29;6.00;99.90
9760;DHT22;4919;48.792;9.202;2023-01-06T08:55:14;5.90;99.90
9760;DHT22;4919;48.792;9.202;2023-01-06T08:57:59;6.00;99.90
9760;DHT22;4919;48.792;9.202;2023-01-06T09:00:44;5.90;99.90
9760;DHT22;4919;48.792;9.202;2023-01-06T09:03:29;6.00;99.90
9760;DHT22;4919;48.792;9.202;2023-01-06T09:06:15;6.00;99.90
9760;DHT22;4919;48.792;9.202;2023-01-06T09:09:01;6.00;99.90
9760;DHT22;4919;48.792;9.202;2023-01-06T09:11:46;6.00;99.90
9760;DHT22;4919;48.792;9.202;2023-01-06T09:14:31;6.00;99.90
9760;DHT22;4919;48.792;9.202;2023-01-06T09:17:16;6.10;99.90
9760;DHT22;4919;48.792;9.202;2023-01-06T09:20:01;6.10;99.90
9760;DHT22;4919;48.792;9.202;2023-01-06T09:22:46;6.20;99.90
9760;DHT22;4919;48.792;9.202;2023-01-06T09:25:30;6.30;99.90
9760;DHT22;4919;48.792;9.202;2023-01-06T09:28:15;6.40;99.90
9760;DHT22;4919;48.792;9.202;2023-01-06T09:31:00;6.30;99.90
9760;DHT22;4919;48.792;9.202;2023-01-06T09:33:45;6.40;99.90
9760;DHT22;4919;48.792;9.202;2023-01-06T09:36:30;6.40;99.90
9760;DHT22;4919;48.792;9.202;2023-01-06T09:39:15;6.50;99.90
9760;DHT22;4919;48.792;9.202;2023-01-06T09:42:34;6.60;99.90
9760;DHT22;4919;48.792;9.202;2023-01-06T09:45:38;6.70;99.90
9760;DHT22;4919;48.792;9.202;2023-01-06T09:48:30;6.70;99.90
9760;DHT22;4919;48.792;9.202;2023-01-06T09:51:20;6.80;99.90
9760;DHT22;4919;48.792;9.202;2023-01-06T09:54:32;6.80;99.90
9760;DHT22;4919;48.792;9.202;2023-01-06T09:57:27;6.90;99.90
9760;DHT22;4919;48.792;9.202;2023-01-06T10:00:34;6.90;99.90
9760;DHT22;4919;48.792;9.202;2023-01-06T10:03:24;6.90;99.90
9760;DHT22;4919;48.792;9.202;2023-01-06T10:06:32;6.90;99.90
9760;DHT22;4919;48.792;9.202;2023-01-06T10:09:24;7.00;99.90
9760;DHT22;4919;48.792;9.202;2023-01-06T10:12:42;7.10;99.90
9760;DHT22;4919;48.792;9.202;2023-01-06T10:15:39;7.10;99.90
9760;DHT22;4919;48.792;9.202;2023-01-06T10:21:55;7.30;99.90
9760;DHT22;4919;48.792;9.202;2023-01-06T10:24:58;7.40;99.90
9760;DHT22;4919;48.792;9.202;2023-01-06T10:27:52;7.50;99.90
9760;DHT22;4919;48.792;9.202;2023-01-06T10:30:47;7.60;99.90
9760;DHT22;4919;48.792;9.202;2023-01-06T10:33:39;7.50;99.90
9760;DHT22;4919;48.792;9.202;2023-01-06T10:39:20;7.80;99.90
9760;DHT22;4919;48.792;9.202;2023-01-06T10:42:22;7.80;99.90
9760;DHT22;4919;48.792;9.202;2023-01-06T10:45:11;7.90;99.90
9760;DHT22;4919;48.792;9.202;2023-01-06T10:47:56;8.00;99.90
9760;DHT22;4919;48.792;9.202;2023-01-06T10:50:41;8.10;99.90
9760;DHT22;4919;48.792;9.202;2023-01-06T10:53:26;8.20;99.90
9760;DHT22;4919;48.792;9.202;2023-01-06T10:56:11;8.30;99.90
9760;DHT22;4919;48.792;9.202;2023-01-06T10:59:05;8.40;99.90
9760;DHT22;4919;48.792;9.202;2023-01-06T11:01:52;8.50;99.90
9760;DHT22;4919;48.792;9.202;2023-01-06T11:04:49;8.60;99.90
9760;DHT22;4919;48.792;9.202;2023-01-06T11:07:34;8.70;99.90
9760;DHT22;4919;48.792;9.202;2023-01-06T11:10:51;8.80;99.90
9760;DHT22;4919;48.792;9.202;2023-01-06T11:13:37;8.80;99.90
9760;DHT22;4919;48.792;9.202;2023-01-06T11:16:31;8.80;99.90
9760;DHT22;4919;48.792;9.202;2023-01-06T11:19:33;8.90;99.90
9760;DHT22;4919;48.792;9.202;2023-01-06T11:22:39;8.80;99.90
9760;DHT22;4919;48.792;9.202;2023-01-06T11:25:25;8.80;99.90
9760;DHT22;4919;48.792;9.202;2023-01-06T11:28:20;8.80;99.90
9760;DHT22;4919;48.792;9.202;2023-01-06T11:31:25;8.80;99.90
9760;DHT22;4919;48.792;9.202;2023-01-06T11:34:19;8.80;99.90
9760;DHT22;4919;48.792;9.202;2023-01-06T11:37:04;8.80;99.90
9760;DHT22;4919;48.792;9.202;2023-01-06T11:39:49;8.80;99.90
9760;DHT22;4919;48.792;9.202;2023-01-06T11:42:34;8.80;99.90
9760;DHT22;4919;48.792;9.202;2023-01-06T11:45:32;8.80;99.90
9760;DHT22;4919;48.792;9.202;2023-01-06T11:48:21;8.80;99.90
9760;DHT22;4919;48.792;9.202;2023-01-06T11:51:08;8.90;99.90
9760;DHT22;4919;48.792;9.202;2023-01-06T11:53:55;8.90;99.90
9760;DHT22;4919;48.792;9.202;2023-01-06T11:56:40;8.90;99.90
9760;DHT22;4919;48.792;9.202;2023-01-06T11:59:30;8.90;99.90
9760;DHT22;4919;48.792;9.202;2023-01-06T12:02:28;8.90;99.90
9760;DHT22;4919;48.792;9.202;2023-01-06T12:11:50;9.10;99.90
9760;DHT22;4919;48.792;9.202;2023-01-06T12:14:37;9.10;99.90
9760;DHT22;4919;48.792;9.202;2023-01-06T12:17:46;9.10;99.90
9760;DHT22;4919;48.792;9.202;2023-01-06T12:20:36;9.20;99.90
9760;DHT22;4919;48.792;9.202;2023-01-06T12:23:36;9.20;99.90
9760;DHT22;4919;48.792;9.202;2023-01-06T12:26:23;9.30;99.90
9760;DHT22;4919;48.792;9.202;2023-01-06T12:29:13;9.30;99.90
9760;DHT22;4919;48.792;9.202;2023-01-06T12:32:17;9.30;99.90
9760;DHT22;4919;48.792;9.202;2023-01-06T12:35:04;9.30;99.90
9760;DHT22;4919;48.792;9.202;2023-01-06T12:37:55;9.40;99.90
9760;DHT22;4919;48.792;9.202;2023-01-06T12:41:04;9.50;99.90
9760;DHT22;4919;48.792;9.202;2023-01-06T12:44:01;9.50;99.90
9760;DHT22;4919;48.792;9.202;2023-01-06T12:50:50;9.60;99.90
9760;DHT22;4919;48.792;9.202;2023-01-06T12:53:47;9.60;99.90
9760;DHT22;4919;48.792;9.202;2023-01-06T12:56:55;9.50;99.90
9760;DHT22;4919;48.792;9.202;2023-01-06T13:14:21;9.70;99.90
9760;DHT22;4919;48.792;9.202;2023-01-06T13:17:24;9.70;99.90
9760;DHT22;4919;48.792;9.202;2023-01-06T13:20:22;9.80;99.90
9760;DHT22;4919;48.792;9.202;2023-01-06T13:29:35;9.90;99.90
9760;DHT22;4919;48.792;9.202;2023-01-06T13:32:45;10.00;99.90
9760;DHT22;4919;48.792;9.202;2023-01-06T13:41:25;10.10;99.90
9760;DHT22;4919;48.792;9.202;2023-01-06T13:44:24;10.20;99.90
9760;DHT22;4919;48.792;9.202;2023-01-06T13:47:14;10.20;99.90
9760;DHT22;4919;48.792;9.202;2023-01-06T13:50:00;10.20;99.90
9760;DHT22;4919;48.792;9.202;2023-01-06T13:52:45;10.40;99.90
9760;DHT22;4919;48.792;9.202;2023-01-06T13:55:34;10.30;99.90
9760;DHT22;4919;48.792;9.202;2023-01-06T14:01:29;10.40;99.90
9760;DHT22;4919;48.792;9.202;2023-01-06T14:07:38;10.40;99.90
9760;DHT22;4919;48.792;9.202;2023-01-06T14:16:09;10.50;99.90
9760;DHT22;4919;48.792;9.202;2023-01-06T14:19:16;10.50;99.90
9760;DHT22;4919;48.792;9.202;2023-01-06T14:22:19;10.50;99.90
9760;DHT22;4919;48.792;9.202;2023-01-06T14:25:05;10.50;99.90
9760;DHT22;4919;48.792;9.202;2023-01-06T14:30:35;10.50;99.90
9760;DHT22;4919;48.792;9.202;2023-01-06T14:33:24;10.50;99.90
9760;DHT22;4919;48.792;9.202;2023-01-06T14:36:12;10.20;99.90
9760;DHT22;4919;48.792;9.202;2023-01-06T14:39:01;10.00;99.90
9760;DHT22;4919;48.792;9.202;2023-01-06T14:44:42;9.90;99.90
9760;DHT22;4919;48.792;9.202;2023-01-06T14:47:41;9.90;99.90
9760;DHT22;4919;48.792;9.202;2023-01-06T14:50:29;9.90;99.90
9760;DHT22;4919;48.792;9.202;2023-01-06T14:53:37;10.00;99.90
9760;DHT22;4919;48.792;9.202;2023-01-06T14:56:25;9.90;99.90
9760;DHT22;4919;48.792;9.202;2023-01-06T14:59:12;10.00;99.90
9760;DHT22;4919;48.792;9.202;2023-01-06T15:02:11;10.10;99.90
9760;DHT22;4919;48.792;9.202;2023-01-06T15:04:58;10.00;99.90
9760;DHT22;4919;48.792;9.202;2023-01-06T15:07:59;10.00;99.90
9760;DHT22;4919;48.792;9.202;2023-01-06T15:10:47;9.90;99.90
9760;DHT22;4919;48.792;9.202;2023-01-06T15:13:32;10.00;99.90
9760;DHT22;4919;48.792;9.202;2023-01-06T15:19:14;9.90;99.90
9760;DHT22;4919;48.792;9.202;2023-01-06T15:22:00;10.00;99.90
9760;DHT22;4919;48.792;9.202;2023-01-06T15:24:49;10.00;99.90
9760;DHT22;4919;48.792;9.202;2023-01-06T15:27:34;10.00;99.90
9760;DHT22;4919;48.792;9.202;2023-01-06T15:30:20;9.90;99.90
9760;DHT22;4919;48.792;9.202;2023-01-06T15:33:05;10.00;99.90
9760;DHT22;4919;48.792;9.202;2023-01-06T15:35:51;10.10;99.90
9760;DHT22;4919;48.792;9.202;2023-01-06T15:38:38;10.00;99.90
9760;DHT22;4919;48.792;9.202;2023-01-06T15:41:25;10.00;99.90
9760;DHT22;4919;48.792;9.202;2023-01-06T15:44:36;10.00;99.90
9760;DHT22;4919;48.792;9.202;2023-01-06T15:47:44;9.90;99.90
9760;DHT22;4919;48.792;9.202;2023-01-06T15:50:32;9.90;99.90
9760;DHT22;4919;48.792;9.202;2023-01-06T15:53:20;10.00;99.90
9760;DHT22;4919;48.792;9.202;2023-01-06T15:56:07;9.90;99.90
9760;DHT22;4919;48.792;9.202;2023-01-06T15:59:00;9.90;99.90
9760;DHT22;4919;48.792;9.202;2023-01-06T16:01:53;9.90;99.90
9760;DHT22;4919;48.792;9.202;2023-01-06T16:04:43;9.70;99.90
9760;DHT22;4919;48.792;9.202;2023-01-06T16:07:32;9.70;99.90
9760;DHT22;4919;48.792;9.202;2023-01-06T16:10:31;9.70;99.90
9760;DHT22;4919;48.792;9.202;2023-01-06T16:13:27;9.70;99.90
9760;DHT22;4919;48.792;9.202;2023-01-06T16:19:18;9.70;99.90
9760;DHT22;4919;48.792;9.202;2023-01-06T16:22:06;9.70;99.90
9760;DHT22;4919;48.792;9.202;2023-01-06T16:24:52;9.70;99.90
9760;DHT22;4919;48.792;9.202;2023-01-06T16:27:37;9.60;99.90
9760;DHT22;4919;48.792;9.202;2023-01-06T16:30:24;9.60;99.90
9760;DHT22;4919;48.792;9.202;2023-01-06T16:33:34;9.70;99.90
9760;DHT22;4919;48.792;9.202;2023-01-06T16:36:19;9.70;99.90
9760;DHT22;4919;48.792;9.202;2023-01-06T16:39:05;9.70;99.90
9760;DHT22;4919;48.792;9.202;2023-01-06T16:44:44;9.60;99.90
9760;DHT22;4919;48.792;9.202;2023-01-06T16:47:29;9.70;99.90
9760;DHT22;4919;48.792;9.202;2023-01-06T16:50:24;9.60;99.90
9760;DHT22;4919;48.792;9.202;2023-01-06T16:55:55;9.60;99.90
9760;DHT22;4919;48.792;9.202;2023-01-06T16:58:40;9.60;99.90
9760;DHT22;4919;48.792;9.202;2023-01-06T17:01:25;9.50;99.90
9760;DHT22;4919;48.792;9.202;2023-01-06T17:04:11;9.50;99.90
9760;DHT22;4919;48.792;9.202;2023-01-06T17:06:56;9.50;99.90
9760;DHT22;4919;48.792;9.202;2023-01-06T17:09:41;9.50;99.90
9760;DHT22;4919;48.792;9.202;2023-01-06T17:12:26;9.50;99.90
9760;DHT22;4919;48.792;9.202;2023-01-06T17:15:11;9.50;99.90
9760;DHT22;4919;48.792;9.202;2023-01-06T17:17:56;9.40;99.90
9760;DHT22;4919;48.792;9.202;2023-01-06T17:20:41;9.40;99.90
9760;DHT22;4919;48.792;9.202;2023-01-06T17:23:26;9.40;99.90
9760;DHT22;4919;48.792;9.202;2023-01-06T17:26:13;9.40;99.90
9760;DHT22;4919;48.792;9.202;2023-01-06T17:29:00;9.40;99.90
9760;DHT22;4919;48.792;9.202;2023-01-06T17:31:48;9.30;99.90
9760;DHT22;4919;48.792;9.202;2023-01-06T17:34:35;9.30;99.90
9760;DHT22;4919;48.792;9.202;2023-01-06T17:37:25;9.40;99.90
9760;DHT22;4919;48.792;9.202;2023-01-06T17:40:14;9.30;99.90
9760;DHT22;4919;48.792;9.202;2023-01-06T17:43:04;9.30;99.90
9760;DHT22;4919;48.792;9.202;2023-01-06T17:45:53;9.30;99.90
9760;DHT22;4919;48.792;9.202;2023-01-06T17:48:39;9.30;99.90
9760;DHT22;4919;48.792;9.202;2023-01-06T17:51:23;9.20;99.90
9760;DHT22;4919;48.792;9.202;2023-01-06T17:54:18;9.20;99.90
9760;DHT22;4919;48.792;9.202;2023-01-06T17:57:17;9.10;99.90
9760;DHT22;4919;48.792;9.202;2023-01-06T18:00:15;9.10;99.90
9760;DHT22;4919;48.792;9.202;2023-01-06T18:03:05;9.00;99.90
9760;DHT22;4919;48.792;9.202;2023-01-06T18:11:49;8.90;99.90
9760;DHT22;4919;48.792;9.202;2023-01-06T18:14:37;8.90;99.90
9760;DHT22;4919;48.792;9.202;2023-01-06T18:17:24;8.80;99.90
9760;DHT22;4919;48.792;9.202;2023-01-06T18:20:09;8.80;99.90
9760;DHT22;4919;48.792;9.202;2023-01-06T18:22:55;8.80;99.90
9760;DHT22;4919;48.792;9.202;2023-01-06T18:25:40;8.80;99.90
9760;DHT22;4919;48.792;9.202;2023-01-06T18:28:25;8.80;99.90
9760;DHT22;4919;48.792;9.202;2023-01-06T18:31:13;8.80;99.90
9760;DHT22;4919;48.792;9.202;2023-01-06T18:34:00;8.70;99.90
9760;DHT22;4919;48.792;9.202;2023-01-06T18:36:45;8.70;99.90
9760;DHT22;4919;48.792;9.202;2023-01-06T18:39:40;8.60;99.90
9760;DHT22;4919;48.792;9.202;2023-01-06T18:42:39;8.60;99.90
9760;DHT22;4919;48.792;9.202;2023-01-06T18:45:25;8.60;99.90
9760;DHT22;4919;48.792;9.202;2023-01-06T18:48:14;8.60;99.90
9760;DHT22;4919;48.792;9.202;2023-01-06T18:51:02;8.60;99.90
9760;DHT22;4919;48.792;9.202;2023-01-06T18:53:50;8.60;99.90
9760;DHT22;4919;48.792;9.202;2023-01-06T18:56:35;8.50;99.90
9760;DHT22;4919;48.792;9.202;2023-01-06T18:59:20;8.50;99.90
9760;DHT22;4919;48.792;9.202;2023-01-06T19:02:23;8.50;99.90
9760;DHT22;4919;48.792;9.202;2023-01-06T19:05:10;8.40;99.90
9760;DHT22;4919;48.792;9.202;2023-01-06T19:07:56;8.40;99.90
9760;DHT22;4919;48.792;9.202;2023-01-06T19:10:43;8.50;99.90
9760;DHT22;4919;48.792;9.202;2023-01-06T19:13:29;8.40;99.90
9760;DHT22;4919;48.792;9.202;2023-01-06T19:16:33;8.40;99.90
9760;DHT22;4919;48.792;9.202;2023-01-06T19:19:24;8.40;99.90
9760;DHT22;4919;48.792;9.202;2023-01-06T19:22:18;8.40;99.90
9760;DHT22;4919;48.792;9.202;2023-01-06T19:31:02;8.30;99.90
9760;DHT22;4919;48.792;9.202;2023-01-06T19:33:58;8.30;99.90
9760;DHT22;4919;48.792;9.202;2023-01-06T19:36:48;8.20;99.90
9760;DHT22;4919;48.792;9.202;2023-01-06T19:39:41;8.20;99.90
9760;DHT22;4919;48.792;9.202;2023-01-06T19:42:27;8.20;99.90
9760;DHT22;4919;48.792;9.202;2023-01-06T19:45:29;8.30;99.90
9760;DHT22;4919;48.792;9.202;2023-01-06T19:54:28;8.20;99.90
9760;DHT22;4919;48.792;9.202;2023-01-06T19:57:24;8.10;99.90
9760;DHT22;4919;48.792;9.202;2023-01-06T20:03:28;8.00;99.90
9760;DHT22;4919;48.792;9.202;2023-01-06T20:06:15;8.00;99.90
9760;DHT22;4919;48.792;9.202;2023-01-06T20:09:00;8.00;99.90
9760;DHT22;4919;48.792;9.202;2023-01-06T20:11:44;7.90;99.90
9760;DHT22;4919;48.792;9.202;2023-01-06T20:14:29;7.80;99.90
9760;DHT22;4919;48.792;9.202;2023-01-06T20:17:14;7.70;99.90
9760;DHT22;4919;48.792;9.202;2023-01-06T20:19:59;7.70;99.90
9760;DHT22;4919;48.792;9.202;2023-01-06T20:22:44;7.70;99.90
9760;DHT22;4919;48.792;9.202;2023-01-06T20:25:29;7.70;99.90
9760;DHT22;4919;48.792;9.202;2023-01-06T20:28:14;7.70;99.90
9760;DHT22;4919;48.792;9.202;2023-01-06T20:30:59;7.70;99.90
9760;DHT22;4919;48.792;9.202;2023-01-06T20:33:44;7.60;99.90
9760;DHT22;4919;48.792;9.202;2023-01-06T20:36:28;7.60;99.90
9760;DHT22;4919;48.792;9.202;2023-01-06T20:39:13;7.60;99.90
9760;DHT22;4919;48.792;9.202;2023-01-06T20:41:58;7.60;99.90
9760;DHT22;4919;48.792;9.202;2023-01-06T20:44:43;7.70;99.90
9760;DHT22;4919;48.792;9.202;2023-01-06T20:47:28;7.80;99.90
9760;DHT22;4919;48.792;9.202;2023-01-06T20:50:13;7.70;99.90
9760;DHT22;4919;48.792;9.202;2023-01-06T20:52:58;7.70;99.90